Time;durP1;ratioP1;P1;durP2;ratioP2;P2;SDS_P1;SDS_P2;PMS_P1;PMS_P2;Temp;Humidity;BMP_temperature;BMP_pressure;BME280_temperature;BME280_humidity;BME280_pressure;Samples;Min_cycle;Max_cycle;Signal;HPM_P1;HPM_P2
2022/10/29 00:01:46;;;;;;;66.10;42.10;;;;;;;10.00;91.56;101626.44;5028644;28;20095;-72
2022/10/29 00:04:12;;;;;;;63.78;41.75;;;;;;;10.68;91.86;101765.22;5027557;28;20485;-72
2022/10/29 00:06:37;;;;;;;61.53;42.30;;;;;;;10.04;92.23;101672.81;5028766;28;20536;-72
2022/10/29 00:09:03;;;;;;;60.90;40.05;;;;;;;9.77;93.07;101632.03;5028887;28;20037;-73
2022/10/29 00:11:29;;;;;;;63.55;44.40;;;;;;;9.74;93.55;101621.50;5051120;28;20117;-72
2022/10/29 00:13:58;;;;;;;59.45;42.50;;;;;;;9.88;92.91;101643.66;5048828;28;20460;-73
2022/10/29 00:16:28;;;;;;;58.08;40.38;;;;;;;9.71;93.28;101629.25;5049332;28;20032;-73
2022/10/29 00:18:54;;;;;;;60.25;43.08;;;;;;;10.43;93.50;101753.31;5048361;28;20037;-71
2022/10/29 00:21:21;;;;;;;57.17;41.05;;;;;;;10.46;93.63;101761.22;5050178;28;20036;-72
2022/10/29 00:23:48;;;;;;;64.53;41.58;;;;;;;9.75;93.51;101623.25;5064799;28;20036;-74
2022/10/29 00:26:14;;;;;;;53.03;38.67;;;;;;;10.04;93.48;101678.94;5078695;28;20129;-73
2022/10/29 00:28:40;;;;;;;62.17;43.13;;;;;;;10.11;94.01;101698.34;5068758;28;20037;-74
2022/10/29 00:31:11;;;;;;;66.43;42.22;;;;;;;10.34;94.52;101736.50;5075816;28;20031;-74
2022/10/29 00:33:37;;;;;;;67.80;39.65;;;;;;;9.40;95.18;101588.34;5081192;28;20058;-73
2022/10/29 00:36:06;;;;;;;67.30;41.10;;;;;;;9.55;95.15;101625.38;5088338;28;20368;-74
2022/10/29 00:38:33;;;;;;;56.45;39.33;;;;;;;9.59;94.67;101621.13;5088432;28;20040;-74
2022/10/29 00:40:58;;;;;;;59.92;39.92;;;;;;;10.26;94.63;101727.53;5088412;28;20040;-72
2022/10/29 00:43:25;;;;;;;54.03;39.90;;;;;;;10.21;95.20;101725.66;5074140;28;20036;-73
2022/10/29 00:46:03;;;;;;;54.03;39.78;;;;;;;10.10;95.81;101723.69;5067516;28;20044;-73
2022/10/29 00:48:32;;;;;;;58.92;41.97;;;;;;;9.30;95.66;101577.66;5075261;28;20044;-73
2022/10/29 00:51:02;;;;;;;63.47;42.55;;;;;;;10.04;96.01;101709.53;5088167;28;20048;-73
2022/10/29 00:53:31;;;;;;;54.83;39.45;;;;;;;9.39;95.89;101620.63;5087970;28;20032;-72
2022/10/29 00:55:58;;;;;;;62.80;40.92;;;;;;;10.04;96.09;101720.91;5087924;28;20464;-73
2022/10/29 00:58:24;;;;;;;57.10;37.05;;;;;;;9.98;94.86;101718.16;5061838;28;20028;-72
2022/10/29 01:00:49;;;;;;;62.30;38.67;;;;;;;9.48;95.18;101658.44;5067173;28;20041;-72
2022/10/29 01:03:15;;;;;;;54.33;37.80;;;;;;;9.75;94.92;101688.78;5066965;28;20033;-74
2022/10/29 01:05:42;;;;;;;55.92;37.10;;;;;;;9.99;94.26;101716.41;5087973;28;20816;-74
2022/10/29 01:08:08;;;;;;;61.38;35.40;;;;;;;9.81;94.65;101709.00;5088108;28;20040;-73
2022/10/29 01:10:39;;;;;;;53.85;34.63;;;;;;;9.67;95.01;101713.94;5049467;28;20032;-74
2022/10/29 01:13:16;;;;;;;56.50;37.53;;;;;;;9.59;95.80;101716.34;5063178;28;20070;-72
2022/10/29 01:15:54;;;;;;;51.78;34.45;;;;;;;9.58;96.00;101727.69;5066828;28;20049;-73
2022/10/29 01:18:34;;;;;;;47.72;35.08;;;;;;;8.90;94.34;101551.34;5066787;28;20144;-73
2022/10/29 01:21:27;;;;;;;57.03;36.55;;;;;;;9.87;93.76;101681.19;5048659;28;20052;-73
2022/10/29 01:24:02;;;;;;;48.20;35.85;;;;;;;10.03;93.84;101708.66;5067020;28;20095;-73
2022/10/29 01:26:58;;;;;;;51.05;38.28;;;;;;;9.93;95.08;101704.06;5087081;28;20055;-74
2022/10/29 01:29:39;;;;;;;64.38;39.78;;;;;;;9.84;95.46;101699.47;5061539;28;20033;-73
2022/10/29 01:32:17;;;;;;;51.17;34.63;;;;;;;9.05;95.07;101573.56;5066983;28;20041;-74
2022/10/29 01:35:03;;;;;;;57.42;37.40;;;;;;;9.69;95.08;101700.00;5067049;28;20044;-74
2022/10/29 01:38:05;;;;;;;53.08;37.50;;;;;;;9.77;95.64;101696.69;5066123;28;20087;-72
2022/10/29 01:40:47;;;;;;;44.85;35.40;;;;;;;8.94;95.77;101590.72;5082285;28;20047;-73
2022/10/29 01:43:34;;;;;;;46.22;36.42;;;;;;;9.04;95.64;101586.63;5074477;28;20138;-75
2022/10/29 01:46:08;;;;;;;46.60;32.58;;;;;;;9.69;95.27;101683.38;5067114;28;20109;-74
2022/10/29 01:48:38;;;;;;;51.90;35.20;;;;;;;9.50;95.46;101667.22;5066680;28;20175;-73
2022/10/29 01:51:10;;;;;;;50.45;33.90;;;;;;;9.68;95.98;101684.22;5048408;28;20397;-72
2022/10/29 01:53:37;;;;;;;51.90;33.75;;;;;;;9.62;96.18;101668.34;5067161;28;20036;-73
2022/10/29 01:56:03;;;;;;;44.70;34.05;;;;;;;9.58;95.87;101666.53;5083721;28;20400;-74
2022/10/29 01:58:29;;;;;;;45.50;33.88;;;;;;;9.71;95.84;101676.44;5078680;28;20041;-74
2022/10/29 02:01:09;;;;;;;46.95;34.13;;;;;;;9.62;96.52;101673.59;5069663;28;20043;-74
2022/10/29 02:03:49;;;;;;;43.20;33.17;;;;;;;9.60;95.91;101681.44;5063265;28;20044;-72
2022/10/29 02:06:19;;;;;;;49.78;34.85;;;;;;;9.60;96.08;101670.94;5066481;28;20044;-73
2022/10/29 02:08:52;;;;;;;53.30;32.60;;;;;;;9.71;95.96;101666.81;5068623;28;20082;-73
2022/10/29 02:11:26;;;;;;;63.58;36.72;;;;;;;8.99;96.25;101542.00;5071898;28;20063;-73
2022/10/29 02:14:03;;;;;;;52.13;35.58;;;;;;;9.63;95.98;101657.91;5066000;28;20040;-73
2022/10/29 02:16:30;;;;;;;48.03;34.95;;;;;;;9.58;96.08;101674.38;5058744;28;20361;-72
2022/10/29 02:18:56;;;;;;;50.75;33.85;;;;;;;9.60;96.31;101665.72;5046828;28;20560;-73
2022/10/29 02:21:23;;;;;;;57.47;34.42;;;;;;;9.58;95.64;101658.66;5046237;28;20032;-73
2022/10/29 02:23:49;;;;;;;57.22;34.67;;;;;;;9.50;95.98;101651.50;5065015;28;20044;-72
2022/10/29 02:26:14;;;;;;;49.20;33.08;;;;;;;9.25;96.33;101608.09;5085652;28;20048;-72
2022/10/29 02:28:40;;;;;;;48.17;34.75;;;;;;;8.72;96.38;101543.91;5068323;28;20495;-72
2022/10/29 02:31:05;;;;;;;50.83;32.47;;;;;;;8.53;96.33;101506.81;5066741;28;20166;-72
2022/10/29 02:33:31;;;;;;;48.53;33.63;;;;;;;8.65;96.51;101504.50;5067837;28;20395;-72
2022/10/29 02:35:56;;;;;;;52.20;34.47;;;;;;;9.47;95.94;101651.41;5084634;28;20107;-73
2022/10/29 02:38:22;;;;;;;43.95;31.83;;;;;;;8.70;95.29;101530.78;5087080;28;20124;-73
2022/10/29 02:40:47;;;;;;;48.13;34.70;;;;;;;9.19;95.45;101584.38;5086713;28;20697;-74
2022/10/29 02:43:13;;;;;;;50.53;35.70;;;;;;;8.81;95.82;101526.72;5074220;28;20037;-74
2022/10/29 02:45:38;;;;;;;50.53;33.17;;;;;;;9.62;95.84;101657.88;5076476;28;20480;-74
2022/10/29 02:48:04;;;;;;;42.97;34.15;;;;;;;8.19;96.75;101512.81;5068876;28;20052;-74
2022/10/29 02:50:30;;;;;;;44.60;31.98;;;;;;;9.35;96.23;101663.34;5090483;28;20131;-72
2022/10/29 02:52:55;;;;;;;45.13;34.10;;;;;;;9.52;95.06;101662.00;5090079;28;20209;-73
2022/10/29 02:55:20;;;;;;;39.95;30.33;;;;;;;9.44;94.29;101664.44;5090783;28;20464;-73
2022/10/29 02:57:46;;;;;;;43.25;32.92;;;;;;;8.65;94.49;101519.31;5086714;28;20509;-73
2022/10/29 03:00:12;;;;;;;52.78;32.55;;;;;;;9.40;93.75;101633.78;5054631;28;20635;-73
2022/10/29 03:02:38;;;;;;;45.60;32.83;;;;;;;8.71;93.70;101510.72;5088603;28;20048;-73
2022/10/29 03:05:04;;;;;;;58.33;32.53;;;;;;;9.54;93.63;101651.56;5090224;28;20056;-73
2022/10/29 03:07:34;;;;;;;42.53;32.33;;;;;;;8.67;93.40;101512.41;5082334;28;20077;-74
2022/10/29 03:09:59;;;;;;;46.92;32.30;;;;;;;9.50;94.31;101650.59;5084094;28;20041;-72
2022/10/29 03:12:25;;;;;;;57.08;31.65;;;;;;;9.16;94.95;101586.03;5059105;28;20045;-73
2022/10/29 03:14:50;;;;;;;45.10;33.45;;;;;;;8.93;94.58;101544.47;5049522;28;20041;-73
2022/10/29 03:17:15;;;;;;;45.17;32.40;;;;;;;9.16;94.11;101613.09;5063084;28;20037;-73
2022/10/29 03:19:41;;;;;;;47.45;33.80;;;;;;;9.46;93.94;101651.41;5069290;28;20029;-73
2022/10/29 03:22:06;;;;;;;45.85;34.25;;;;;;;9.21;93.64;101632.44;5069799;28;20037;-74
2022/10/29 03:24:32;;;;;;;45.67;32.75;;;;;;;9.38;92.83;101614.50;5086684;28;20045;-73
2022/10/29 03:26:57;;;;;;;42.63;30.55;;;;;;;9.52;93.06;101662.00;5088890;28;20044;-73
2022/10/29 03:29:23;;;;;;;49.28;31.27;;;;;;;9.43;93.47;101649.56;5064850;28;20040;-73
2022/10/29 03:31:48;;;;;;;42.05;28.95;;;;;;;9.41;93.45;101655.59;5068915;28;20109;-74
2022/10/29 03:34:14;;;;;;;53.38;32.13;;;;;;;8.72;94.21;101525.59;5069604;28;20084;-72
2022/10/29 03:36:39;;;;;;;43.55;31.52;;;;;;;8.91;94.03;101555.75;5069081;28;20037;-74
2022/10/29 03:39:05;;;;;;;52.50;32.10;;;;;;;9.48;94.19;101653.19;5084264;28;20050;-73
2022/10/29 03:41:30;;;;;;;47.10;31.38;;;;;;;9.43;94.94;101646.94;5059415;28;20037;-73
2022/10/29 03:43:56;;;;;;;46.70;32.92;;;;;;;8.63;94.73;101537.59;5050968;28;20102;-74
2022/10/29 03:46:27;;;;;;;51.20;31.40;;;;;;;9.25;94.81;101642.16;5069673;28;20025;-73
2022/10/29 03:48:53;;;;;;;44.83;34.22;;;;;;;8.44;95.28;101485.66;5068793;28;20053;-72
2022/10/29 03:51:18;;;;;;;50.47;32.75;;;;;;;9.13;94.83;101619.97;5069052;28;20126;-72
2022/10/29 03:53:44;;;;;;;41.53;33.72;;;;;;;9.11;95.28;101640.00;5053202;28;20044;-72
2022/10/29 03:56:09;;;;;;;40.85;32.13;;;;;;;8.52;95.24;101528.59;5087739;28;20040;-72
2022/10/29 03:58:35;;;;;;;38.22;30.52;;;;;;;8.74;94.79;101568.41;5073082;28;20037;-73
2022/10/29 04:01:03;;;;;;;51.20;34.58;;;;;;;9.26;94.59;101641.28;5048165;28;20055;-73
2022/10/29 04:03:30;;;;;;;48.63;32.88;;;;;;;9.28;94.45;101642.22;5047189;28;20037;-73
2022/10/29 04:05:57;;;;;;;53.75;33.75;;;;;;;9.26;94.80;101645.66;5049000;28;20688;-73
2022/10/29 04:08:22;;;;;;;48.70;31.65;;;;;;;8.67;94.64;101535.94;5088194;28;20074;-73
2022/10/29 04:10:49;;;;;;;50.53;32.33;;;;;;;8.42;94.48;101509.13;5078506;28;20065;-73
2022/10/29 04:13:16;;;;;;;40.45;32.67;;;;;;;9.02;94.88;101649.41;5069077;28;20120;-74
2022/10/29 04:15:41;;;;;;;46.53;33.40;;;;;;;7.86;97.62;101533.66;5068598;28;20120;-73
2022/10/29 04:18:07;;;;;;;51.25;32.60;;;;;;;8.20;97.53;101546.00;5050449;28;20775;-72
2022/10/29 04:20:33;;;;;;;40.78;34.08;;;;;;;8.58;97.66;101658.66;5068428;28;20295;-72
2022/10/29 04:22:59;;;;;;;49.05;31.52;;;;;;;7.73;99.03;101546.38;5086212;28;20104;-73
2022/10/29 04:25:24;;;;;;;50.65;35.55;;;;;;;8.61;99.29;101661.34;5070946;28;20031;-74
2022/10/29 04:27:52;;;;;;;48.05;34.90;;;;;;;8.86;97.55;101655.06;5085593;28;20035;-74
2022/10/29 04:30:17;;;;;;;49.75;33.97;;;;;;;8.98;96.78;101658.00;5061212;28;20044;-73
2022/10/29 04:32:43;;;;;;;45.10;32.53;;;;;;;8.25;96.87;101541.75;5068029;28;20033;-72
2022/10/29 04:35:08;;;;;;;44.67;34.30;;;;;;;8.74;97.47;101629.47;5049823;28;20048;-73
2022/10/29 04:37:34;;;;;;;46.78;33.90;;;;;;;8.84;97.32;101630.59;5066160;28;20024;-73
2022/10/29 04:39:59;;;;;;;47.95;29.23;;;;;;;8.19;96.95;101515.44;5068562;28;20043;-73
2022/10/29 04:42:24;;;;;;;51.97;34.15;;;;;;;8.93;97.48;101643.94;5068010;28;20040;-74
2022/10/29 04:44:50;;;;;;;62.72;37.17;;;;;;;9.05;97.07;101651.22;5067931;28;20041;-72
2022/10/29 04:47:15;;;;;;;51.40;34.47;;;;;;;9.06;97.44;101655.59;5067843;28;20040;-74
2022/10/29 04:49:41;;;;;;;52.90;32.80;;;;;;;9.11;97.26;101646.16;5060661;28;20039;-74
2022/10/29 04:52:06;;;;;;;45.47;34.88;;;;;;;9.03;97.47;101642.44;5067306;28;20029;-74
2022/10/29 04:54:32;;;;;;;46.03;34.08;;;;;;;8.41;97.07;101516.97;5067269;28;20044;-73
2022/10/29 04:56:57;;;;;;;48.22;32.50;;;;;;;8.31;96.33;101514.88;5067567;28;20091;-72
2022/10/29 04:59:23;;;;;;;40.15;30.73;;;;;;;9.14;96.15;101661.06;5052201;28;20055;-73
2022/10/29 05:01:48;;;;;;;53.63;32.55;;;;;;;9.16;96.23;101644.53;5054049;28;20464;-71
2022/10/29 05:04:13;;;;;;;48.78;31.95;;;;;;;8.41;96.56;101517.84;5078439;28;20166;-75
2022/10/29 05:06:39;;;;;;;46.15;31.05;;;;;;;9.18;96.79;101657.69;5072487;28;20403;-72
2022/10/29 05:09:04;;;;;;;42.22;31.75;;;;;;;9.18;96.99;101645.47;5065444;28;20048;-73
2022/10/29 05:11:30;;;;;;;39.90;31.17;;;;;;;9.13;96.55;101631.38;5066822;28;20043;-73
2022/10/29 05:13:55;;;;;;;47.35;32.00;;;;;;;9.12;96.36;101629.56;5067248;28;20047;-72
2022/10/29 05:16:21;;;;;;;46.30;32.63;;;;;;;8.52;96.34;101515.53;5067313;28;20395;-72
2022/10/29 05:18:46;;;;;;;69.55;32.72;;;;;;;9.15;96.71;101624.41;5066701;28;20358;-73
2022/10/29 05:21:12;;;;;;;42.30;31.58;;;;;;;8.60;96.30;101523.56;5075949;28;20044;-73
2022/10/29 05:23:37;;;;;;;43.15;29.15;;;;;;;8.58;96.31;101527.84;5068854;28;20048;-74
2022/10/29 05:26:03;;;;;;;43.90;34.03;;;;;;;9.40;96.02;101662.59;5065995;28;20106;-75
2022/10/29 05:28:28;;;;;;;48.42;30.98;;;;;;;9.41;95.66;101653.91;5056668;28;20039;-70
2022/10/29 05:30:54;;;;;;;47.00;32.05;;;;;;;9.12;95.57;101606.00;5056504;28;20051;-73
2022/10/29 05:33:23;;;;;;;39.53;28.88;;;;;;;9.49;95.30;101675.91;5037178;28;20734;-74
2022/10/29 05:35:49;;;;;;;42.15;29.27;;;;;;;8.61;95.06;101538.41;5056236;28;20064;-75
2022/10/29 05:38:15;;;;;;;45.63;29.90;;;;;;;9.39;95.31;101662.53;5050629;28;20052;-75
2022/10/29 05:40:43;;;;;;;41.58;28.23;;;;;;;8.64;94.85;101542.00;5052320;28;20035;-75
2022/10/29 05:43:12;;;;;;;36.95;29.77;;;;;;;9.57;94.99;101675.22;5062088;28;20119;-74
2022/10/29 05:45:38;;;;;;;47.17;32.78;;;;;;;9.52;94.38;101656.75;5086101;28;20127;-74
2022/10/29 05:48:04;;;;;;;38.50;23.95;;;;;;;8.88;94.51;101546.06;5087163;28;20412;-74
2022/10/29 05:50:31;;;;;;;44.58;30.33;;;;;;;9.08;94.56;101557.03;5068940;28;20051;-74
2022/10/29 05:52:58;;;;;;;51.50;32.60;;;;;;;9.19;94.45;101573.88;5087143;28;20047;-75
2022/10/29 05:55:24;;;;;;;48.30;29.65;;;;;;;9.45;94.09;101620.78;5087339;28;20475;-74
2022/10/29 05:57:54;;;;;;;47.20;30.17;;;;;;;9.98;93.51;101689.31;5073929;28;20043;-75
2022/10/29 06:00:20;;;;;;;40.97;27.02;;;;;;;9.29;93.07;101554.94;5063901;28;20044;-76
2022/10/29 06:02:45;;;;;;;55.83;30.23;;;;;;;10.02;92.65;101693.78;5063308;28;20071;-75
2022/10/29 06:05:11;;;;;;;37.03;28.38;;;;;;;9.26;92.41;101557.47;5054561;28;20713;-76
2022/10/29 06:07:36;;;;;;;41.72;26.25;;;;;;;10.00;92.16;101664.03;5066098;28;20029;-74
2022/10/29 06:10:02;;;;;;;37.95;28.25;;;;;;;9.24;92.40;101550.44;5067127;28;20100;-75
2022/10/29 06:12:31;;;;;;;35.03;24.98;;;;;;;10.03;91.92;101689.41;5066280;28;20127;-73
2022/10/29 06:14:56;;;;;;;31.38;23.15;;;;;;;9.51;90.89;101605.22;5063212;28;20040;-75
2022/10/29 06:17:22;;;;;;;34.78;24.00;;;;;;;10.13;89.54;101681.78;5064424;28;20086;-76
2022/10/29 06:19:47;;;;;;;33.17;23.40;;;;;;;10.41;89.76;101698.16;5066740;28;20379;-76
2022/10/29 06:22:12;;;;;;;38.20;24.40;;;;;;;10.37;89.25;101670.06;5066882;28;20032;-74
2022/10/29 06:24:38;;;;;;;34.13;23.15;;;;;;;10.71;89.25;101721.53;5069020;28;20055;-74
2022/10/29 06:27:03;;;;;;;41.13;25.98;;;;;;;10.63;89.15;101698.59;5069626;28;20056;-74
2022/10/29 06:29:29;;;;;;;36.63;22.88;;;;;;;10.63;89.81;101689.00;5069656;28;20041;-75
2022/10/29 06:31:54;;;;;;;42.53;22.67;;;;;;;10.71;90.21;101723.28;5070021;28;20048;-75
2022/10/29 06:34:20;;;;;;;30.83;22.05;;;;;;;10.50;89.95;101682.59;5070566;28;20023;-75
2022/10/29 06:36:45;;;;;;;29.88;20.58;;;;;;;10.09;87.07;101582.94;5070102;28;20040;-75
2022/10/29 06:39:10;;;;;;;31.92;21.33;;;;;;;10.66;86.26;101648.81;5069936;28;20033;-75
2022/10/29 06:41:37;;;;;;;29.33;21.05;;;;;;;11.17;86.91;101722.44;5067289;28;20041;-76
2022/10/29 06:44:03;;;;;;;29.13;21.63;;;;;;;11.26;86.34;101720.84;5069835;28;20044;-76
2022/10/29 06:46:29;;;;;;;37.97;21.08;;;;;;;11.38;85.49;101735.09;5061586;28;20036;-75
2022/10/29 06:48:55;;;;;;;22.98;17.73;;;;;;;11.43;84.58;101734.31;5070204;28;20040;-76
2022/10/29 06:51:21;;;;;;;23.75;19.35;;;;;;;11.31;84.51;101695.56;5067431;28;20510;-76
2022/10/29 06:53:47;;;;;;;28.52;18.02;;;;;;;11.32;85.48;101686.78;5069794;28;20052;-76
2022/10/29 06:56:13;;;;;;;32.92;19.45;;;;;;;10.86;84.59;101592.28;5082466;28;20110;-75
2022/10/29 06:58:39;;;;;;;23.77;17.83;;;;;;;11.19;83.32;101630.50;5055540;28;20094;-76
2022/10/29 07:01:04;;;;;;;24.33;18.20;;;;;;;11.79;83.17;101731.41;5060852;28;20539;-75
2022/10/29 07:03:30;;;;;;;18.85;16.02;;;;;;;11.01;82.66;101609.19;5060138;28;20138;-76
2022/10/29 07:05:58;;;;;;;25.60;17.95;;;;;;;11.98;81.76;101735.22;5073474;28;20136;-75
2022/10/29 07:08:23;;;;;;;27.15;19.63;;;;;;;11.98;82.06;101722.97;5068506;28;20847;-76
2022/10/29 07:10:50;;;;;;;24.73;18.30;;;;;;;12.09;81.34;101724.88;5060022;28;20045;-75
2022/10/29 07:13:16;;;;;;;25.60;18.65;;;;;;;12.21;80.93;101722.44;5067927;28;20154;-76
2022/10/29 07:15:41;;;;;;;35.40;19.63;;;;;;;12.10;80.87;101695.06;5064809;28;20048;-74
2022/10/29 07:18:08;;;;;;;37.00;19.08;;;;;;;11.50;81.42;101599.50;5066719;28;20492;-74
2022/10/29 07:20:39;;;;;;;29.77;19.60;;;;;;;12.26;80.71;101704.94;5069379;28;20043;-76
2022/10/29 07:23:04;;;;;;;47.08;21.85;;;;;;;11.65;79.56;101572.53;5069336;28;20045;-75
2022/10/29 07:25:31;;;;;;;34.33;22.17;;;;;;;12.00;79.30;101605.50;5069396;28;20194;-76
2022/10/29 07:28:30;;;;;;;31.70;20.88;;;;;;;12.51;79.40;101665.81;5068426;28;20136;-75
2022/10/29 07:30:59;;;;;;;43.97;23.85;;;;;;;12.84;79.70;101704.81;5065030;28;20048;-74
2022/10/29 07:33:24;;;;;;;28.13;22.52;;;;;;;12.98;78.72;101713.75;5049387;28;20037;-75
2022/10/29 07:35:50;;;;;;;33.40;23.88;;;;;;;13.35;76.85;101702.75;5050608;28;20025;-75
2022/10/29 07:38:15;;;;;;;33.13;21.27;;;;;;;12.72;77.28;101612.50;5069119;28;20123;-75
2022/10/29 07:40:55;;;;;;;34.72;23.85;;;;;;;12.74;77.19;101608.13;5050399;28;20464;-76
2022/10/29 07:43:21;;;;;;;28.33;21.83;;;;;;;13.13;77.08;101675.25;5069526;28;20078;-75
2022/10/29 07:45:50;;;;;;;36.40;20.60;;;;;;;13.19;76.97;101680.59;5067823;28;20141;-75
2022/10/29 07:48:15;;;;;;;34.00;22.50;;;;;;;13.48;76.73;101700.22;5049026;28;20457;-76
2022/10/29 07:50:41;;;;;;;33.33;20.08;;;;;;;12.87;75.77;101579.28;5049409;28;20045;-75
2022/10/29 07:53:07;;;;;;;31.80;20.58;;;;;;;13.64;76.37;101706.50;5045603;28;20052;-76
2022/10/29 07:55:32;;;;;;;36.10;20.33;;;;;;;13.69;76.11;101703.91;5068664;28;20103;-76
2022/10/29 07:58:04;;;;;;;40.42;23.90;;;;;;;13.52;76.06;101674.75;5067139;28;20039;-75
2022/10/29 08:00:31;;;;;;;39.08;23.63;;;;;;;13.76;75.26;101697.81;5065963;28;20048;-75
2022/10/29 08:02:57;;;;;;;36.95;25.40;;;;;;;12.53;75.92;101492.94;5068109;28;20078;-76
2022/10/29 08:05:24;;;;;;;33.75;23.05;;;;;;;13.92;75.73;101702.31;5073854;28;20040;-75
2022/10/29 08:07:53;;;;;;;39.58;22.63;;;;;;;13.34;74.60;101596.38;5050155;28;20048;-74
2022/10/29 08:10:19;;;;;;;40.28;25.75;;;;;;;14.46;72.20;101691.19;5047230;28;20439;-75
2022/10/29 08:12:55;;;;;;;43.63;26.50;;;;;;;14.06;71.63;101601.25;5064810;28;20094;-74
2022/10/29 08:15:21;;;;;;;36.42;26.33;;;;;;;14.56;71.58;101691.28;5068255;28;20052;-75
2022/10/29 08:17:47;;;;;;;56.40;29.70;;;;;;;14.60;72.26;101696.56;5048557;28;20130;-75
2022/10/29 08:20:22;;;;;;;43.67;27.95;;;;;;;14.71;70.80;101681.66;5066795;28;20040;-75
2022/10/29 08:22:48;;;;;;;30.00;24.10;;;;;;;14.46;70.04;101618.13;5065106;28;20032;-76
2022/10/29 08:25:14;;;;;;;32.72;23.67;;;;;;;14.94;70.45;101694.94;5068321;28;20452;-74
2022/10/29 08:28:00;;;;;;;34.22;23.42;;;;;;;14.93;70.45;101693.16;5067567;28;20052;-75
2022/10/29 08:30:27;;;;;;;37.55;26.23;;;;;;;14.52;71.51;101631.34;5055247;28;20052;-76
2022/10/29 08:32:52;;;;;;;39.72;22.75;;;;;;;14.97;69.86;101694.94;5063655;28;20055;-75
2022/10/29 08:35:18;;;;;;;25.83;21.58;;;;;;;14.72;71.90;101689.56;5067327;28;20056;-74
2022/10/29 08:37:44;;;;;;;28.88;21.45;;;;;;;14.28;70.47;101583.72;5057460;28;20032;-75
2022/10/29 08:40:30;;;;;;;39.40;20.02;;;;;;;15.08;70.10;101698.50;5068632;28;20044;-75
2022/10/29 08:43:36;;;;;;;29.83;20.48;;;;;;;15.02;69.92;101702.88;5060932;28;20048;-76
2022/10/29 08:46:02;;;;;;;29.92;21.80;;;;;;;14.00;69.98;101493.00;5063016;28;20072;-75
2022/10/29 08:48:57;;;;;;;29.25;18.42;;;;;;;15.10;70.43;101694.09;5053012;28;20053;-76
2022/10/29 08:51:24;;;;;;;29.60;19.85;;;;;;;15.27;69.14;101699.41;5054157;28;20063;-74
2022/10/29 08:53:53;;;;;;;32.13;20.73;;;;;;;14.82;68.97;101586.53;5067332;28;20053;-75
2022/10/29 08:56:24;;;;;;;34.47;20.58;;;;;;;14.82;68.57;101579.50;5067583;28;20065;-77
2022/10/29 08:59:12;;;;;;;28.40;19.83;;;;;;;15.61;68.17;101683.53;5058489;28;20048;-74
2022/10/29 09:01:38;;;;;;;33.33;20.48;;;;;;;15.69;67.75;101692.38;5060278;28;20048;-76
2022/10/29 09:04:23;;;;;;;34.67;21.30;;;;;;;15.16;66.42;101553.97;5058209;28;20476;-75
2022/10/29 09:07:37;;;;;;;27.98;21.35;;;;;;;15.95;66.83;101676.47;5055910;28;20095;-75
2022/10/29 09:10:23;;;;;;;25.88;20.15;;;;;;;15.83;68.18;101679.16;5033092;28;20454;-74
2022/10/29 09:13:01;;;;;;;30.88;22.50;;;;;;;15.80;67.91;101655.31;5050720;28;20048;-75
2022/10/29 09:15:40;;;;;;;29.80;18.02;;;;;;;16.07;66.89;101677.34;5045942;28;20117;-74
2022/10/29 09:18:17;;;;;;;27.35;16.88;;;;;;;16.25;65.42;101664.94;5061022;28;20068;-76
2022/10/29 09:20:57;;;;;;;28.60;18.83;;;;;;;16.42;64.95;101678.13;5056036;28;20040;-75
2022/10/29 09:23:34;;;;;;;28.42;18.08;;;;;;;16.32;66.43;101680.78;5060604;28;20059;-77
2022/10/29 09:26:16;;;;;;;27.30;18.27;;;;;;;15.72;65.52;101552.13;5061350;28;20586;-75
2022/10/29 09:29:19;;;;;;;30.15;20.75;;;;;;;16.43;65.72;101666.63;5055454;28;20044;-75
2022/10/29 09:31:54;;;;;;;31.25;20.95;;;;;;;16.29;66.50;101638.44;5066839;28;20070;-76
2022/10/29 09:34:30;;;;;;;29.90;18.60;;;;;;;16.68;64.19;101637.38;5063987;28;20062;-75
2022/10/29 09:36:57;;;;;;;28.52;19.95;;;;;;;16.28;64.25;101570.47;5066551;28;20047;-76
2022/10/29 09:39:37;;;;;;;44.72;20.83;;;;;;;16.70;63.96;101634.72;5046659;28;20037;-77
2022/10/29 09:42:19;;;;;;;42.10;21.67;;;;;;;17.08;63.45;101648.63;5058076;28;20147;-75
2022/10/29 09:44:50;;;;;;;26.02;19.10;;;;;;;17.07;63.21;101644.22;5061401;28;20128;-81
2022/10/29 09:47:21;;;;;;;33.45;20.02;;;;;;;16.90;64.15;101627.53;5059947;28;20056;-75
2022/10/29 09:50:07;;;;;;;32.10;20.80;;;;;;;16.55;63.07;101546.47;5059372;28;20041;-75
2022/10/29 09:52:35;;;;;;;28.27;16.65;;;;;;;17.13;62.94;101630.03;5062584;28;20025;-75
2022/10/29 09:55:05;;;;;;;23.80;17.75;;;;;;;17.39;61.31;101635.13;5046264;28;20391;-77
2022/10/29 09:57:34;;;;;;;23.05;16.77;;;;;;;17.38;62.28;101640.47;5063758;28;20484;-77
2022/10/29 10:00:16;;;;;;;28.65;14.73;;;;;;;16.99;61.40;101541.75;5051264;28;20052;-74
2022/10/29 10:02:41;;;;;;;19.02;12.75;;;;;;;16.96;60.83;101533.81;5074963;28;20514;-74
2022/10/29 10:05:15;;;;;;;18.95;13.77;;;;;;;17.36;60.41;101579.44;5070084;28;20050;-76
2022/10/29 10:07:40;;;;;;;19.63;10.63;;;;;;;16.97;60.45;101507.28;5062687;28;20035;-74
2022/10/29 10:10:20;;;;;;;17.55;11.40;;;;;;;17.57;61.03;101625.25;5069440;28;20020;-73
2022/10/29 10:12:48;;;;;;;19.08;11.90;;;;;;;17.71;60.00;101631.31;5060481;28;20041;-76
2022/10/29 10:15:31;;;;;;;17.02;12.35;;;;;;;17.61;60.49;101601.31;5067123;28;20395;-75
2022/10/29 10:18:02;;;;;;;13.68;10.88;;;;;;;17.08;61.05;101507.19;5086160;28;20056;-75
2022/10/29 10:20:35;;;;;;;21.67;10.35;;;;;;;17.80;60.76;101607.31;5085844;28;20102;-75
2022/10/29 10:23:16;;;;;;;22.65;9.85;;;;;;;18.06;59.55;101608.81;5075973;28;20045;-75
2022/10/29 10:25:41;;;;;;;14.73;10.10;;;;;;;18.35;57.83;101590.75;5066098;28;20032;-75
2022/10/29 10:28:23;;;;;;;13.70;10.70;;;;;;;18.34;58.87;101570.38;5052542;28;20041;-75
2022/10/29 10:31:11;;;;;;;17.55;9.90;;;;;;;18.68;56.38;101579.66;5042410;28;20048;-75
2022/10/29 10:33:50;;;;;;;12.45;8.40;;;;;;;18.02;57.16;101461.88;5046199;28;20041;-73
2022/10/29 10:36:17;;;;;;;13.48;8.90;;;;;;;18.03;56.25;101474.28;5046560;28;20517;-75
2022/10/29 10:38:46;;;;;;;16.80;8.80;;;;;;;18.22;56.61;101464.28;5046167;28;20053;-74
2022/10/29 10:41:15;;;;;;;17.55;9.10;;;;;;;18.70;57.66;101568.09;5057332;28;20204;-75
2022/10/29 10:43:44;;;;;;;13.43;8.90;;;;;;;18.66;56.47;101553.09;5041766;28;20111;-75
2022/10/29 10:46:17;;;;;;;15.85;9.45;;;;;;;19.00;56.41;101555.25;5045299;28;20033;-75
2022/10/29 10:48:43;;;;;;;16.92;9.07;;;;;;;18.94;56.08;101550.91;5046717;28;20136;-74
2022/10/29 10:51:27;;;;;;;11.40;7.75;;;;;;;18.36;57.86;101437.50;5063799;28;20094;-74
2022/10/29 10:53:53;;;;;;;16.48;8.82;;;;;;;18.95;55.87;101534.03;5027892;28;20072;-73
2022/10/29 10:56:21;;;;;;;13.07;8.50;;;;;;;19.21;55.79;101547.81;5059599;28;20076;-74
2022/10/29 10:59:05;;;;;;;22.35;8.18;;;;;;;19.27;55.75;101537.03;5043499;28;20037;-74
2022/10/29 11:01:40;;;;;;;10.48;5.35;;;;;;;19.22;55.13;101539.78;5038621;28;20029;-73
2022/10/29 11:04:26;;;;;;;9.80;6.22;;;;;;;18.96;54.94;101457.78;5027399;28;20455;-75
2022/10/29 11:06:57;;;;;;;30.88;7.38;;;;;;;19.44;53.98;101523.44;5030047;28;20045;-74
2022/10/29 11:09:49;;;;;;;13.30;6.75;;;;;;;19.61;53.40;101534.63;5025795;28;20049;-75
2022/10/29 11:12:47;;;;;;;14.63;6.82;;;;;;;19.57;53.20;101525.84;5036523;28;20076;-74
2022/10/29 11:15:43;;;;;;;10.90;5.15;;;;;;;19.33;53.93;101523.63;5028544;28;20045;-75
2022/10/29 11:18:18;;;;;;;9.88;5.47;;;;;;;19.58;52.72;101522.25;5047065;28;20219;-75
2022/10/29 11:20:54;;;;;;;7.30;4.65;;;;;;;19.03;53.56;101424.84;5043238;28;20044;-74
2022/10/29 11:23:46;;;;;;;13.73;6.35;;;;;;;18.83;52.62;101398.63;5042979;28;20059;-74
2022/10/29 11:26:20;;;;;;;14.48;5.22;;;;;;;19.60;52.11;101517.78;5028541;28;20117;-73
2022/10/29 11:29:08;;;;;;;13.40;6.70;;;;;;;19.59;51.93;101493.84;5065669;28;20469;-74